Time;durP1;ratioP1;P1;durP2;ratioP2;P2;SDS_P1;SDS_P2;PMS_P1;PMS_P2;Temp;Humidity;BMP_temperature;BMP_pressure;BME280_temperature;BME280_humidity;BME280_pressure;Samples;Min_cycle;Max_cycle;Signal;HPM_P1;HPM_P2
2022/09/01 00:01:26;;;;;;;2.58;1.00;;;18.50;56.10;;;;;;4999602;28;20049;-76
2022/09/01 00:03:52;;;;;;;3.95;1.30;;;18.40;56.20;;;;;;4980697;28;20022;-76
2022/09/01 00:06:22;;;;;;;2.65;1.10;;;18.40;56.30;;;;;;4966906;28;20038;-77
2022/09/01 00:08:52;;;;;;;0.90;0.90;;;18.40;56.30;;;;;;4981955;28;20094;-77
2022/09/01 00:11:18;;;;;;;1.27;0.95;;;18.30;56.40;;;;;;4985280;28;20034;-76
2022/09/01 00:13:43;;;;;;;2.88;0.80;;;18.30;56.40;;;;;;4984839;28;20096;-76
2022/09/01 00:16:12;;;;;;;1.30;1.02;;;18.30;56.50;;;;;;4985139;28;20045;-76
2022/09/01 00:18:41;;;;;;;1.77;0.77;;;18.30;56.70;;;;;;5000707;28;20061;-76
2022/09/01 00:21:08;;;;;;;1.20;0.98;;;18.20;57.30;;;;;;4984558;28;20026;-76
2022/09/01 00:23:34;;;;;;;1.10;1.00;;;18.20;56.80;;;;;;4967164;28;20038;-76
2022/09/01 00:25:59;;;;;;;1.40;1.00;;;18.20;56.90;;;;;;4968941;28;20031;-76
2022/09/01 00:28:25;;;;;;;1.88;1.00;;;18.20;56.90;;;;;;4987469;28;20046;-77
2022/09/01 00:30:51;;;;;;;2.15;1.17;;;18.20;57.00;;;;;;5003780;28;20042;-76
2022/09/01 00:33:16;;;;;;;2.47;1.00;;;18.10;57.00;;;;;;4985037;28;20046;-76
2022/09/01 00:35:42;;;;;;;2.53;1.10;;;18.10;57.10;;;;;;4957593;28;20031;-77
2022/09/01 00:38:07;;;;;;;1.00;1.00;;;18.10;57.20;;;;;;4986658;28;20042;-76
2022/09/01 00:40:33;;;;;;;2.25;1.02;;;18.00;57.20;;;;;;4983333;28;20038;-76
2022/09/01 00:42:59;;;;;;;1.20;1.10;;;18.00;57.20;;;;;;4986665;28;20046;-77
2022/09/01 00:45:24;;;;;;;1.20;1.10;;;18.00;57.30;;;;;;4986336;28;20313;-77
2022/09/01 00:47:50;;;;;;;2.55;1.05;;;18.00;57.30;;;;;;4971396;28;20038;-76
2022/09/01 00:50:16;;;;;;;2.28;1.10;;;18.00;57.40;;;;;;4986924;28;20126;-77
2022/09/01 00:52:46;;;;;;;1.88;1.05;;;17.90;57.60;;;;;;4989510;28;20045;-76
2022/09/01 00:55:15;;;;;;;1.70;0.90;;;17.90;57.70;;;;;;4969688;28;20073;-77
2022/09/01 00:57:41;;;;;;;2.40;1.00;;;17.90;57.60;;;;;;4946639;28;20161;-77
2022/09/01 01:00:21;;;;;;;1.98;0.88;;;17.90;57.70;;;;;;4985728;28;20042;-76
2022/09/01 01:02:47;;;;;;;3.42;1.05;;;17.90;57.80;;;;;;4988890;28;20098;-77
2022/09/01 01:05:13;;;;;;;1.30;1.20;;;17.90;57.80;;;;;;4972164;28;20049;-77
2022/09/01 01:07:41;;;;;;;2.60;1.00;;;17.90;57.90;;;;;;4986385;28;20065;-76
2022/09/01 01:10:08;;;;;;;1.02;0.90;;;17.90;58.00;;;;;;4973618;28;20053;-76
2022/09/01 01:12:36;;;;;;;1.40;1.13;;;17.90;58.10;;;;;;4999961;28;20121;-77
2022/09/01 01:15:03;;;;;;;1.92;1.10;;;17.90;58.20;;;;;;5001095;28;20081;-77
2022/09/01 01:17:28;;;;;;;2.45;1.08;;;17.90;58.30;;;;;;5002485;28;20057;-77
2022/09/01 01:25:25;;;;;;;1.25;1.15;;;17.80;58.30;;;;;;4986295;28;20655;-76
2022/09/01 01:27:51;;;;;;;1.67;1.48;;;17.80;58.40;;;;;;4966561;28;20098;-77
2022/09/01 01:30:17;;;;;;;1.35;1.00;;;17.80;58.50;;;;;;4985183;28;20082;-76
2022/09/01 01:32:44;;;;;;;1.63;1.00;;;17.80;58.60;;;;;;4997964;28;20318;-77
2022/09/01 01:35:13;;;;;;;0.93;0.80;;;17.80;58.60;;;;;;4984135;28;20034;-77
2022/09/01 01:37:44;;;;;;;0.80;0.80;;;17.80;58.60;;;;;;4968204;28;20050;-76
2022/09/01 01:40:14;;;;;;;1.02;0.90;;;17.80;58.60;;;;;;4976477;28;20031;-77
2022/09/01 01:42:44;;;;;;;1.30;1.00;;;17.80;58.70;;;;;;4967717;28;20054;-76
2022/09/01 01:45:11;;;;;;;2.70;1.25;;;17.80;58.70;;;;;;4980806;28;20102;-77
2022/09/01 01:47:37;;;;;;;1.60;1.00;;;17.80;58.80;;;;;;4982129;28;20042;-77
2022/09/01 01:50:08;;;;;;;4.60;1.42;;;17.80;58.80;;;;;;4981716;28;20069;-77
2022/09/01 01:52:34;;;;;;;1.40;1.10;;;17.80;58.90;;;;;;4983102;28;20064;-76
2022/09/01 01:55:00;;;;;;;3.17;1.67;;;17.80;58.90;;;;;;4978564;28;20050;-77
2022/09/01 01:57:30;;;;;;;1.75;1.27;;;17.80;59.00;;;;;;4965101;28;20026;-77
2022/09/01 01:59:56;;;;;;;3.22;1.05;;;17.80;59.00;;;;;;4965771;28;20031;-77
2022/09/01 02:02:22;;;;;;;2.35;1.17;;;17.80;59.10;;;;;;4947740;28;20045;-76
2022/09/01 02:04:48;;;;;;;2.35;0.70;;;17.70;59.10;;;;;;4970012;28;20039;-76
2022/09/01 02:07:13;;;;;;;1.92;1.20;;;17.80;59.20;;;;;;4998628;28;20057;-76
2022/09/01 02:09:39;;;;;;;2.65;1.25;;;17.80;59.20;;;;;;4950978;28;20110;-77
2022/09/01 02:12:06;;;;;;;1.42;1.00;;;17.80;59.20;;;;;;4983359;28;20048;-77
2022/09/01 02:14:32;;;;;;;1.67;1.00;;;17.70;59.20;;;;;;4982715;28;20066;-77
2022/09/01 02:17:00;;;;;;;3.50;1.10;;;17.70;59.30;;;;;;4983664;28;20039;-77
2022/09/01 02:19:26;;;;;;;1.20;1.10;;;17.70;59.30;;;;;;4996091;28;20054;-77
2022/09/01 02:21:55;;;;;;;1.95;1.17;;;17.70;59.30;;;;;;4972214;28;20141;-76
2022/09/01 02:24:20;;;;;;;1.60;0.88;;;17.70;59.30;;;;;;4982105;28;20035;-76
2022/09/01 02:26:47;;;;;;;1.27;0.95;;;17.70;59.30;;;;;;4981777;28;20136;-76
2022/09/01 02:29:17;;;;;;;1.88;1.00;;;17.70;59.30;;;;;;4981475;28;20054;-77
2022/09/01 02:31:44;;;;;;;1.37;0.90;;;17.70;59.30;;;;;;4980484;28;20034;-76
2022/09/01 02:34:12;;;;;;;2.45;0.95;;;17.60;59.20;;;;;;4997651;28;20270;-76
2022/09/01 02:36:43;;;;;;;1.52;0.80;;;17.60;59.30;;;;;;4968368;28;20035;-77
2022/09/01 02:39:09;;;;;;;2.63;1.10;;;17.60;59.30;;;;;;4983462;28;20047;-76
2022/09/01 02:41:34;;;;;;;0.95;0.85;;;17.50;59.30;;;;;;4983097;28;20042;-77
2022/09/01 02:44:01;;;;;;;1.10;1.00;;;17.60;59.40;;;;;;4968178;28;20070;-76
2022/09/01 02:46:28;;;;;;;1.83;1.10;;;17.50;59.30;;;;;;4982850;28;20047;-76
2022/09/01 02:48:53;;;;;;;2.45;0.80;;;17.50;59.30;;;;;;4982395;28;20039;-77
2022/09/01 02:51:22;;;;;;;2.22;1.17;;;17.50;59.40;;;;;;4980017;28;20041;-76
2022/09/01 02:53:51;;;;;;;1.60;1.02;;;17.40;59.40;;;;;;4980878;28;20073;-77
2022/09/01 02:56:17;;;;;;;1.15;1.05;;;17.40;59.40;;;;;;4982013;28;20249;-76
2022/09/01 02:58:46;;;;;;;2.03;0.95;;;17.40;59.50;;;;;;4982850;28;20061;-76
2022/09/01 03:01:25;;;;;;;1.75;1.33;;;17.30;59.50;;;;;;4984759;28;20027;-76
2022/09/01 03:03:52;;;;;;;2.60;1.20;;;17.30;59.50;;;;;;4968616;28;20043;-77
2022/09/01 03:06:19;;;;;;;1.83;1.15;;;17.30;59.50;;;;;;4982290;28;20042;-77
2022/09/01 03:08:45;;;;;;;1.23;1.00;;;17.20;59.60;;;;;;4966647;28;20039;-76
2022/09/01 03:11:11;;;;;;;3.22;1.10;;;17.20;59.70;;;;;;4951609;28;20027;-77
2022/09/01 03:13:37;;;;;;;1.48;1.00;;;17.10;59.60;;;;;;4962918;28;20090;-77
2022/09/01 03:16:04;;;;;;;3.25;1.02;;;17.10;59.70;;;;;;4980137;28;20102;-76
2022/09/01 03:18:30;;;;;;;2.13;1.20;;;17.10;60.00;;;;;;4963761;28;20042;-77
2022/09/01 03:20:56;;;;;;;1.58;0.95;;;17.00;60.00;;;;;;4982526;28;20031;-76
2022/09/01 03:23:24;;;;;;;2.63;1.00;;;16.90;60.80;;;;;;4996847;28;20066;-76
2022/09/01 03:25:49;;;;;;;1.10;1.00;;;16.90;60.10;;;;;;4963531;28;20076;-76
2022/09/01 03:28:15;;;;;;;1.27;1.13;;;16.90;60.20;;;;;;4983121;28;20030;-76
2022/09/01 03:30:46;;;;;;;1.73;1.35;;;16.80;60.20;;;;;;4970858;28;20042;-76
2022/09/01 03:33:11;;;;;;;1.63;1.10;;;16.80;60.40;;;;;;4980943;28;20427;-77
2022/09/01 03:35:37;;;;;;;2.22;0.90;;;16.70;60.30;;;;;;4979320;28;20023;-76
2022/09/01 03:38:07;;;;;;;1.35;1.10;;;16.70;60.40;;;;;;4982558;28;20043;-76
2022/09/01 03:40:34;;;;;;;1.90;1.17;;;16.70;60.80;;;;;;4964210;28;20062;-76
2022/09/01 03:43:03;;;;;;;3.30;1.10;;;16.60;60.70;;;;;;4967841;28;20025;-77
2022/09/01 03:45:31;;;;;;;1.55;1.13;;;16.60;60.70;;;;;;4978670;28;20027;-76
2022/09/01 03:47:57;;;;;;;2.45;1.38;;;16.50;60.80;;;;;;4979934;28;20070;-76
2022/09/01 03:50:23;;;;;;;1.20;1.10;;;16.50;60.90;;;;;;4980378;28;20039;-76
2022/09/01 03:52:51;;;;;;;4.47;1.27;;;16.50;61.00;;;;;;4972664;28;20057;-77
2022/09/01 03:55:22;;;;;;;1.98;1.10;;;16.40;61.10;;;;;;4976472;28;20113;-76
2022/09/01 03:57:49;;;;;;;1.08;1.00;;;16.40;61.20;;;;;;4965410;28;20042;-76
2022/09/01 04:00:19;;;;;;;2.75;1.10;;;16.30;61.30;;;;;;4963703;28;20031;-76
2022/09/01 04:02:49;;;;;;;1.40;1.00;;;16.30;61.30;;;;;;4965263;28;20086;-77
2022/09/01 04:05:15;;;;;;;1.40;1.30;;;16.20;61.60;;;;;;4992257;28;20098;-76
2022/09/01 04:07:40;;;;;;;2.25;1.17;;;16.20;61.50;;;;;;4979678;28;20031;-76
2022/09/01 04:10:10;;;;;;;1.83;1.40;;;16.10;61.60;;;;;;4965182;28;20050;-76
2022/09/01 04:12:36;;;;;;;1.77;1.10;;;16.10;61.70;;;;;;4979500;28;20050;-76
2022/09/01 04:15:02;;;;;;;1.40;1.20;;;16.10;61.90;;;;;;4965595;28;20042;-76
2022/09/01 04:20:18;;;;;;;1.30;1.20;;;16.00;62.00;;;;;;4972689;28;20779;-77
2022/09/01 04:22:46;;;;;;;3.70;1.45;;;15.90;62.00;;;;;;4952393;28;20058;-77
2022/09/01 04:25:12;;;;;;;2.03;1.08;;;15.90;62.20;;;;;;4981480;28;20034;-77
2022/09/01 04:27:39;;;;;;;1.75;1.20;;;15.90;62.30;;;;;;4964502;28;20034;-76
2022/09/01 04:30:10;;;;;;;1.30;1.20;;;15.80;62.40;;;;;;4978902;28;20039;-76
2022/09/01 04:32:36;;;;;;;;;;;15.80;62.50;;;;;;4947433;28;20034;-76
2022/09/01 04:35:03;;;;;;;2.90;1.38;;;15.80;62.40;;;;;;4979325;28;19925;-76
2022/09/01 04:37:28;;;;;;;1.33;1.23;;;15.70;62.30;;;;;;4973079;28;20026;-76
2022/09/01 04:39:54;;;;;;;1.95;0.90;;;15.70;62.50;;;;;;4977695;28;20077;-76
2022/09/01 04:42:22;;;;;;;1.58;1.38;;;15.70;62.70;;;;;;4980354;28;20031;-75
2022/09/01 04:44:52;;;;;;;1.13;0.95;;;15.60;62.80;;;;;;4944772;28;20561;-76
2022/09/01 04:47:18;;;;;;;2.95;0.93;;;15.60;62.90;;;;;;4963220;28;20038;-76
2022/09/01 04:49:46;;;;;;;1.45;1.30;;;15.60;63.00;;;;;;4962548;28;20038;-77
2022/09/01 04:52:11;;;;;;;1.05;0.95;;;15.60;63.10;;;;;;4953177;28;20058;-77
2022/09/01 04:54:37;;;;;;;2.03;1.25;;;15.50;63.20;;;;;;4983940;28;20050;-76
2022/09/01 04:57:05;;;;;;;2.72;1.23;;;15.50;63.30;;;;;;4968452;28;20054;-75
2022/09/01 04:59:31;;;;;;;1.85;1.40;;;15.50;63.40;;;;;;4963716;28;20132;-76
2022/09/01 05:01:59;;;;;;;1.63;1.20;;;15.40;63.40;;;;;;4949918;28;20039;-75
2022/09/01 05:04:26;;;;;;;2.75;1.23;;;15.40;63.70;;;;;;4964696;28;20049;-76
2022/09/01 05:06:58;;;;;;;2.80;1.20;;;15.30;63.50;;;;;;4978997;28;20035;-77
2022/09/01 05:09:24;;;;;;;1.48;1.20;;;15.30;63.70;;;;;;4979179;28;20058;-76
2022/09/01 05:11:49;;;;;;;2.28;1.17;;;15.30;63.80;;;;;;4980027;28;20070;-76
2022/09/01 05:14:17;;;;;;;2.58;1.50;;;15.30;63.90;;;;;;4967699;28;20039;-75
2022/09/01 05:16:44;;;;;;;2.45;1.60;;;15.20;64.10;;;;;;4968760;28;20041;-76
2022/09/01 05:19:13;;;;;;;1.88;1.25;;;15.20;64.10;;;;;;4999519;28;20110;-76
2022/09/01 05:21:39;;;;;;;3.08;1.70;;;15.20;64.30;;;;;;4985438;28;20064;-76
2022/09/01 05:24:06;;;;;;;3.15;1.52;;;15.20;64.40;;;;;;5018457;28;20079;-75
2022/09/01 05:26:33;;;;;;;1.60;1.40;;;15.20;64.50;;;;;;4992063;28;20030;-76
2022/09/01 05:29:02;;;;;;;1.42;1.33;;;15.20;64.60;;;;;;4973308;28;20037;-76
2022/09/01 05:31:32;;;;;;;1.63;1.20;;;15.20;64.80;;;;;;5001517;28;20041;-76
2022/09/01 05:33:57;;;;;;;3.80;1.40;;;15.20;64.90;;;;;;4973553;28;20597;-77
2022/09/01 05:36:27;;;;;;;2.15;1.17;;;15.20;65.00;;;;;;4978276;28;20030;-76
2022/09/01 05:38:53;;;;;;;2.88;1.40;;;15.20;65.10;;;;;;4986609;28;20034;-76
2022/09/01 05:41:19;;;;;;;2.83;1.55;;;15.20;65.10;;;;;;4976045;28;20030;-77
2022/09/01 05:43:48;;;;;;;2.45;1.40;;;15.20;65.20;;;;;;4996001;28;20028;-76
2022/09/01 05:46:15;;;;;;;1.75;1.58;;;15.20;65.40;;;;;;4980283;28;20034;-76
2022/09/01 05:48:42;;;;;;;3.25;1.80;;;15.20;65.40;;;;;;4996444;28;20049;-77
2022/09/01 05:51:08;;;;;;;4.07;1.83;;;15.30;65.60;;;;;;4975916;28;20061;-75
2022/09/01 05:53:33;;;;;;;2.65;1.45;;;15.30;65.70;;;;;;4946480;28;20039;-76
2022/09/01 05:56:05;;;;;;;8.93;2.90;;;15.30;65.80;;;;;;4961953;28;20022;-78
2022/09/01 05:58:31;;;;;;;5.25;2.17;;;15.30;65.90;;;;;;4981796;28;20026;-76
2022/09/01 06:00:58;;;;;;;6.82;2.47;;;15.30;66.00;;;;;;4981405;28;20042;-77
2022/09/01 06:03:25;;;;;;;4.82;2.50;;;15.40;66.30;;;;;;4999302;28;20260;-77
2022/09/01 06:05:52;;;;;;;2.67;2.00;;;15.40;66.30;;;;;;4964209;28;20030;-76
2022/09/01 06:08:20;;;;;;;4.22;1.83;;;15.50;66.40;;;;;;4968064;28;20490;-76
2022/09/01 06:10:49;;;;;;;8.40;1.80;;;15.50;66.50;;;;;;4965222;28;20036;-77
2022/09/01 06:13:15;;;;;;;7.20;2.72;;;15.60;66.70;;;;;;5000243;28;20042;-76
2022/09/01 06:15:41;;;;;;;4.35;1.70;;;15.60;66.50;;;;;;4952535;28;20058;-76
2022/09/01 06:18:10;;;;;;;4.40;2.15;;;15.70;66.50;;;;;;4966937;28;20034;-76
2022/09/01 06:20:40;;;;;;;7.57;2.08;;;15.80;66.70;;;;;;4997206;28;20046;-76
2022/09/01 06:23:06;;;;;;;2.72;2.25;;;15.90;66.80;;;;;;4981502;28;20041;-77
2022/09/01 06:25:31;;;;;;;4.13;2.20;;;15.90;66.60;;;;;;4978880;28;20030;-72
2022/09/01 06:27:57;;;;;;;3.15;2.03;;;16.00;66.60;;;;;;4958327;28;20038;-72
2022/09/01 06:30:25;;;;;;;3.40;2.30;;;16.10;66.50;;;;;;4944265;28;20034;-73
2022/09/01 06:32:51;;;;;;;3.50;2.30;;;16.20;66.40;;;;;;4958770;28;20031;-73
2022/09/01 06:35:17;;;;;;;6.95;2.10;;;16.30;66.40;;;;;;4948053;28;20026;-73
2022/09/01 06:37:43;;;;;;;2.60;1.80;;;16.40;66.20;;;;;;4927014;28;20057;-73
2022/09/01 06:40:15;;;;;;;5.15;2.10;;;16.40;66.20;;;;;;4959671;28;20038;-71
2022/09/01 06:42:46;;;;;;;4.63;2.70;;;16.50;66.00;;;;;;4960167;28;20035;-72
2022/09/01 06:45:14;;;;;;;2.00;1.73;;;16.60;65.90;;;;;;4932728;28;20030;-72
2022/09/01 06:47:43;;;;;;;3.20;1.92;;;16.60;65.80;;;;;;4973682;28;20062;-72
2022/09/01 06:50:14;;;;;;;2.35;1.83;;;16.70;65.70;;;;;;4968988;28;20143;-72
2022/09/01 06:52:43;;;;;;;2.10;1.85;;;16.70;65.60;;;;;;4958957;28;20719;-72
2022/09/01 06:55:12;;;;;;;2.53;1.60;;;16.80;65.60;;;;;;4951538;28;20105;-72
2022/09/01 06:57:39;;;;;;;2.08;1.60;;;16.80;65.50;;;;;;4958681;28;20026;-73
2022/09/01 07:00:16;;;;;;;2.67;1.48;;;16.90;65.40;;;;;;4954523;28;20037;-71
2022/09/01 07:02:43;;;;;;;3.83;1.65;;;17.00;65.30;;;;;;4946170;28;20050;-72
2022/09/01 07:05:12;;;;;;;3.13;1.52;;;17.00;65.10;;;;;;4949101;28;20266;-76
2022/09/01 07:07:38;;;;;;;3.50;1.42;;;17.10;65.10;;;;;;4969422;28;20027;-76
2022/09/01 07:10:04;;;;;;;2.03;1.38;;;17.20;65.00;;;;;;4965660;28;20046;-75
2022/09/01 07:12:30;;;;;;;2.50;1.60;;;17.20;64.80;;;;;;4983935;28;20044;-76
2022/09/01 07:14:57;;;;;;;3.40;1.88;;;17.30;64.70;;;;;;4954757;28;20057;-77
2022/09/01 07:17:24;;;;;;;1.88;1.52;;;17.40;64.80;;;;;;4951218;28;20030;-76
2022/09/01 07:19:49;;;;;;;1.73;1.60;;;17.50;64.60;;;;;;4969456;28;20049;-77
2022/09/01 07:22:15;;;;;;;2.15;1.30;;;17.60;64.40;;;;;;4979716;28;20030;-76
2022/09/01 07:24:42;;;;;;;3.03;1.40;;;17.70;64.30;;;;;;4993319;28;20234;-77
2022/09/01 07:27:08;;;;;;;2.35;1.65;;;17.80;64.10;;;;;;4972512;28;20034;-76
2022/09/01 07:29:35;;;;;;;4.10;1.42;;;18.00;64.00;;;;;;4963394;28;20065;-76
2022/09/01 07:32:01;;;;;;;2.00;1.48;;;18.10;63.70;;;;;;4964614;28;20092;-76
2022/09/01 07:34:27;;;;;;;1.55;1.35;;;18.20;63.50;;;;;;4963247;28;20117;-76
2022/09/01 07:36:55;;;;;;;2.58;1.30;;;18.40;63.20;;;;;;4965783;28;20062;-77
2022/09/01 07:39:21;;;;;;;3.80;1.40;;;18.50;62.90;;;;;;4964356;28;20046;-76
2022/09/01 07:41:50;;;;;;;5.68;1.42;;;18.50;62.60;;;;;;4968795;28;20054;-76
2022/09/01 07:44:15;;;;;;;2.72;1.55;;;18.60;62.40;;;;;;4964356;28;20026;-76
2022/09/01 07:46:41;;;;;;;1.48;1.23;;;18.80;62.30;;;;;;4980702;28;20045;-76
2022/09/01 07:49:07;;;;;;;3.10;1.80;;;18.80;62.00;;;;;;4964631;28;20046;-76
2022/09/01 07:51:35;;;;;;;3.95;1.30;;;18.90;61.90;;;;;;4949495;28;20039;-76
2022/09/01 07:54:01;;;;;;;1.48;1.30;;;19.00;61.70;;;;;;4960476;28;20031;-76
2022/09/01 07:56:29;;;;;;;1.50;1.40;;;19.10;61.50;;;;;;4948582;28;20037;-76
2022/09/01 07:58:54;;;;;;;1.67;1.10;;;19.20;61.30;;;;;;4966230;28;20081;-77
2022/09/01 08:01:21;;;;;;;3.38;1.55;;;19.30;61.10;;;;;;4947815;28;20042;-76
2022/09/01 08:03:50;;;;;;;3.65;1.60;;;19.40;60.90;;;;;;4965494;28;20026;-76
2022/09/01 08:06:18;;;;;;;1.98;1.50;;;19.40;60.70;;;;;;4960777;28;20027;-77
2022/09/01 08:08:43;;;;;;;2.72;1.58;;;19.60;60.50;;;;;;4966624;28;20046;-77
2022/09/01 08:11:11;;;;;;;3.13;1.40;;;19.70;60.20;;;;;;4979867;28;20042;-76
2022/09/01 08:13:37;;;;;;;4.60;1.80;;;19.80;59.90;;;;;;4951000;28;20021;-77
2022/09/01 08:16:05;;;;;;;2.53;1.52;;;19.90;59.70;;;;;;4966639;28;20030;-76
2022/09/01 08:18:31;;;;;;;2.10;1.05;;;20.00;59.40;;;;;;4975891;28;20094;-76
2022/09/01 08:20:57;;;;;;;3.17;1.40;;;20.10;59.30;;;;;;4959387;28;20043;-76
2022/09/01 08:23:25;;;;;;;2.22;1.77;;;20.20;59.10;;;;;;4966920;28;20090;-76
2022/09/01 08:25:51;;;;;;;5.40;1.65;;;20.30;58.90;;;;;;4943272;28;20046;-76
2022/09/01 08:28:17;;;;;;;4.07;1.50;;;20.40;58.70;;;;;;4949950;28;20069;-77
2022/09/01 08:30:42;;;;;;;3.03;1.20;;;20.50;58.50;;;;;;4958081;28;20034;-77
2022/09/01 08:33:12;;;;;;;3.30;1.40;;;20.70;58.30;;;;;;4960563;28;20034;-77
2022/09/01 08:35:41;;;;;;;1.10;1.00;;;20.80;58.10;;;;;;4965539;28;20035;-77
2022/09/01 08:38:07;;;;;;;2.00;1.30;;;21.00;57.90;;;;;;4956190;28;20031;-76
2022/09/01 08:40:33;;;;;;;1.20;1.10;;;21.20;57.70;;;;;;4978976;28;20023;-76
2022/09/01 08:43:19;;;;;;;2.40;1.10;;;21.40;57.40;;;;;;4965360;28;20057;-77
2022/09/01 08:45:55;;;;;;;3.05;1.52;;;21.70;56.70;;;;;;4967184;28;20095;-77
2022/09/01 08:48:29;;;;;;;1.35;1.10;;;21.90;56.50;;;;;;4981233;28;20121;-77
2022/09/01 08:51:07;;;;;;;2.95;1.40;;;22.10;56.10;;;;;;4983454;28;20038;-77
2022/09/01 08:53:41;;;;;;;3.38;1.35;;;22.20;55.60;;;;;;4963963;28;20365;-77
2022/09/01 08:56:07;;;;;;;1.23;1.02;;;22.40;55.40;;;;;;4991102;28;20221;-77
2022/09/01 08:58:32;;;;;;;3.53;1.40;;;22.50;55.10;;;;;;4981353;28;20030;-76
2022/09/01 09:01:03;;;;;;;2.67;1.25;;;22.70;54.80;;;;;;4980260;28;20046;-77
2022/09/01 09:03:56;;;;;;;1.33;1.23;;;22.90;54.40;;;;;;4966648;28;20050;-77
2022/09/01 09:06:34;;;;;;;1.20;1.00;;;23.10;53.80;;;;;;4978479;28;20039;-77
2022/09/01 09:09:04;;;;;;;1.52;1.10;;;23.40;53.70;;;;;;4980093;28;20035;-77
2022/09/01 09:11:44;;;;;;;2.10;1.20;;;23.50;53.20;;;;;;4963919;28;20050;-78
2022/09/01 09:14:31;;;;;;;2.28;1.00;;;23.70;52.20;;;;;;4977537;28;20031;-78
2022/09/01 09:16:57;;;;;;;2.67;1.35;;;23.80;52.30;;;;;;4978702;28;20045;-77
2022/09/01 09:19:48;;;;;;;2.20;1.13;;;24.00;52.10;;;;;;4965992;28;20103;-77
2022/09/01 09:22:16;;;;;;;1.77;0.90;;;24.20;51.00;;;;;;4979638;28;20046;-77
2022/09/01 09:25:03;;;;;;;1.33;1.23;;;24.40;51.20;;;;;;4982158;28;20035;-77
2022/09/01 09:27:30;;;;;;;2.08;1.00;;;24.50;50.80;;;;;;4982860;28;20081;-77
2022/09/01 09:29:58;;;;;;;4.45;1.35;;;24.80;50.60;;;;;;4979539;28;20043;-77
2022/09/01 09:32:43;;;;;;;2.90;1.08;;;25.00;50.00;;;;;;4980844;28;20117;-77
2022/09/01 09:35:28;;;;;;;1.58;1.10;;;25.20;49.80;;;;;;4973818;28;20035;-77
2022/09/01 09:37:55;;;;;;;1.23;1.10;;;25.40;48.90;;;;;;4976880;28;20054;-77
2022/09/01 09:40:23;;;;;;;2.67;1.00;;;25.70;49.00;;;;;;4964724;28;20039;-77
2022/09/01 09:42:54;;;;;;;1.35;0.98;;;25.80;48.60;;;;;;4979538;28;20035;-78
2022/09/01 09:45:25;;;;;;;1.80;1.00;;;26.10;48.20;;;;;;4981957;28;20041;-77
2022/09/01 09:47:55;;;;;;;1.30;0.98;;;26.20;47.70;;;;;;4999248;28;20097;-78
2022/09/01 09:50:28;;;;;;;1.08;0.98;;;26.30;47.40;;;;;;4991170;28;20053;-75
2022/09/01 09:53:10;;;;;;;1.63;1.02;;;26.40;47.00;;;;;;4976313;28;20089;-75
2022/09/01 09:55:36;;;;;;;1.88;1.20;;;26.50;46.00;;;;;;4976721;28;20054;-75
2022/09/01 09:58:08;;;;;;;0.80;0.80;;;26.60;46.50;;;;;;4959116;28;20047;-75
2022/09/01 10:00:34;;;;;;;1.42;0.80;;;26.70;45.90;;;;;;4955536;28;20109;-75
2022/09/01 10:03:04;;;;;;;1.10;0.80;;;26.80;45.90;;;;;;4960031;28;20039;-74
2022/09/01 10:05:47;;;;;;;4.55;1.05;;;26.90;45.40;;;;;;4960863;28;20130;-75
2022/09/01 10:08:36;;;;;;;0.73;0.65;;;27.10;44.40;;;;;;4955976;28;20069;-76
2022/09/01 10:11:02;;;;;;;1.65;0.80;;;27.30;44.80;;;;;;4977235;28;21406;-76
2022/09/01 10:13:28;;;;;;;4.70;0.93;;;27.50;44.60;;;;;;4964858;28;20034;-77
2022/09/01 10:15:59;;;;;;;3.10;0.75;;;27.60;44.10;;;;;;4977968;28;20134;-77
2022/09/01 10:18:40;;;;;;;1.13;0.77;;;27.80;43.50;;;;;;4947773;28;20039;-77
2022/09/01 10:21:15;;;;;;;3.40;0.80;;;27.90;42.30;;;;;;4945499;28;20428;-77
2022/09/01 10:23:40;;;;;;;3.10;1.00;;;27.90;42.70;;;;;;4980934;28;20110;-77
2022/09/01 10:26:09;;;;;;;0.90;0.88;;;28.10;42.70;;;;;;4985136;28;20084;-77
2022/09/01 10:28:40;;;;;;;2.15;1.17;;;28.30;42.30;;;;;;4987619;28;20106;-77
2022/09/01 10:31:05;;;;;;;0.88;0.82;;;28.50;41.90;;;;;;4968297;28;20045;-77
2022/09/01 10:33:31;;;;;;;1.50;0.80;;;28.60;41.60;;;;;;4964143;28;20308;-76
2022/09/01 10:35:56;;;;;;;2.05;0.90;;;28.70;41.10;;;;;;4982319;28;20199;-77
2022/09/01 10:38:24;;;;;;;0.82;0.70;;;28.70;41.00;;;;;;4951732;28;20041;-76
2022/09/01 10:41:09;;;;;;;1.67;0.90;;;28.80;40.80;;;;;;4961238;28;20026;-77
2022/09/01 10:43:47;;;;;;;1.67;0.93;;;28.80;40.50;;;;;;4979282;28;21617;-77
2022/09/01 10:46:41;;;;;;;3.78;0.90;;;29.10;40.50;;;;;;4994078;28;20105;-76
2022/09/01 10:49:36;;;;;;;3.17;1.00;;;29.20;39.80;;;;;;4977858;28;20096;-77
2022/09/01 10:52:01;;;;;;;1.65;0.60;;;29.30;39.20;;;;;;4954248;28;20045;-76
2022/09/01 10:54:54;;;;;;;2.38;0.80;;;29.40;39.90;;;;;;5012444;28;20038;-77
2022/09/01 10:57:38;;;;;;;2.05;0.80;;;29.60;39.00;;;;;;4968762;28;20114;-76
2022/09/01 11:00:18;;;;;;;4.68;2.75;;;29.80;39.00;;;;;;4995725;28;20043;-77
2022/09/01 11:03:12;;;;;;;4.38;1.73;;;29.90;38.30;;;;;;4992677;28;20034;-78
2022/09/01 11:05:53;;;;;;;4.07;1.35;;;30.10;38.20;;;;;;4994710;28;20045;-78
2022/09/01 11:08:27;;;;;;;1.70;1.20;;;30.30;37.60;;;;;;4994052;28;20524;-77
2022/09/01 11:11:04;;;;;;;2.70;1.33;;;30.40;37.50;;;;;;4993532;28;20046;-76
2022/09/01 11:13:34;;;;;;;6.07;1.60;;;30.50;37.20;;;;;;4994043;28;20054;-77
2022/09/01 11:16:27;;;;;;;6.33;2.90;;;30.60;37.30;;;;;;4999026;28;20069;-76
2022/09/01 11:18:53;;;;;;;1.75;1.35;;;30.70;35.90;;;;;;4989578;28;20053;-77
2022/09/01 11:21:28;;;;;;;2.67;1.67;;;30.80;36.80;;;;;;4981113;28;20046;-76
2022/09/01 11:24:32;;;;;;;0.90;0.90;;;30.80;35.70;;;;;;4993304;28;20038;-76
2022/09/01 11:26:57;;;;;;;1.23;1.10;;;31.00;35.40;;;;;;4995091;28;20069;-77
2022/09/01 11:29:51;;;;;;;1.00;0.90;;;31.10;36.00;;;;;;4965240;28;20034;-77
2022/09/01 11:32:18;;;;;;;1.23;0.95;;;31.20;34.40;;;;;;4963783;28;20068;-77
2022/09/01 11:34:43;;;;;;;3.70;1.13;;;31.20;35.30;;;;;;4983307;28;20103;-76
2022/09/01 11:37:16;;;;;;;3.35;0.80;;;31.20;34.90;;;;;;4976722;28;20043;-77
2022/09/01 11:40:07;;;;;;;0.90;0.80;;;31.10;34.60;;;;;;4984242;28;20069;-77
2022/09/01 11:42:39;;;;;;;1.85;1.00;;;31.10;34.80;;;;;;4998592;28;20049;-76
2022/09/01 11:45:25;;;;;;;1.60;0.88;;;31.20;34.80;;;;;;4948890;28;20050;-77
2022/09/01 11:47:53;;;;;;;1.55;0.80;;;31.30;33.90;;;;;;4963297;28;20125;-78
2022/09/01 11:50:33;;;;;;;1.60;0.90;;;31.40;34.50;;;;;;4946101;28;20042;-77
2022/09/01 11:53:04;;;;;;;5.20;1.13;;;31.40;33.30;;;;;;4965614;28;20042;-77
2022/09/01 11:55:31;;;;;;;1.45;0.80;;;31.50;34.00;;;;;;4963009;28;20242;-77
2022/09/01 11:57:57;;;;;;;1.15;0.70;;;31.60;33.80;;;;;;4964737;28;20042;-77
2022/09/01 12:00:37;;;;;;;1.35;0.80;;;31.70;33.70;;;;;;4982303;28;20029;-76
2022/09/01 12:03:23;;;;;;;1.13;0.90;;;31.80;32.70;;;;;;4966836;28;20125;-77
2022/09/01 12:05:58;;;;;;;0.95;0.93;;;31.80;33.20;;;;;;5003579;28;20384;-77
2022/09/01 12:08:25;;;;;;;2.92;0.95;;;31.90;33.10;;;;;;4972077;28;20106;-77
2022/09/01 12:11:02;;;;;;;1.08;0.93;;;32.00;33.20;;;;;;4966974;28;20278;-77
2022/09/01 12:13:28;;;;;;;2.28;0.80;;;32.00;32.60;;;;;;4981253;28;20049;-77
2022/09/01 12:15:55;;;;;;;1.80;0.80;;;32.00;33.00;;;;;;4981492;28;20038;-77
2022/09/01 12:18:28;;;;;;;1.17;1.08;;;31.90;32.80;;;;;;4963297;28;20081;-77
2022/09/01 12:20:56;;;;;;;4.32;0.90;;;31.80;32.70;;;;;;5005793;28;20100;-77
2022/09/01 12:23:30;;;;;;;1.45;0.95;;;31.80;32.70;;;;;;4970672;28;20044;-76
2022/09/01 12:26:09;;;;;;;0.90;0.73;;;31.80;32.40;;;;;;4981762;28;20141;-77
2022/09/01 12:28:34;;;;;;;1.30;0.93;;;31.90;32.30;;;;;;4982876;28;20106;-77
2022/09/01 12:31:07;;;;;;;1.05;0.90;;;31.80;32.60;;;;;;4964841;28;20130;-77
2022/09/01 12:33:33;;;;;;;2.55;0.90;;;31.80;32.30;;;;;;4999892;28;20038;-78
2022/09/01 12:36:23;;;;;;;2.15;0.98;;;31.70;32.30;;;;;;4984902;28;20042;-77
2022/09/01 12:38:49;;;;;;;2.63;0.73;;;31.60;31.80;;;;;;4981531;28;20649;-78
2022/09/01 12:41:34;;;;;;;0.80;0.77;;;31.50;32.30;;;;;;4970221;28;20118;-76
2022/09/01 12:44:37;;;;;;;1.15;0.90;;;31.30;31.90;;;;;;4984364;28;20094;-78
2022/09/01 12:47:15;;;;;;;1.90;0.85;;;31.20;32.00;;;;;;5000912;28;20046;-77
2022/09/01 12:49:45;;;;;;;0.80;0.80;;;31.20;32.50;;;;;;4971003;28;21432;-77
2022/09/01 12:52:19;;;;;;;5.00;1.00;;;31.00;32.30;;;;;;4999118;28;20046;-77
2022/09/01 12:54:46;;;;;;;1.70;1.00;;;31.00;32.40;;;;;;4999239;28;20073;-77
2022/09/01 12:57:21;;;;;;;2.42;1.08;;;31.00;32.30;;;;;;5004956;28;20042;-77
2022/09/01 12:59:47;;;;;;;1.35;0.90;;;30.90;32.30;;;;;;4985859;28;20038;-77
2022/09/01 13:02:26;;;;;;;1.98;1.00;;;30.80;32.30;;;;;;4971367;28;20041;-77
2022/09/01 13:04:52;;;;;;;0.90;0.90;;;30.70;31.80;;;;;;4969659;28;20034;-77
2022/09/01 13:07:17;;;;;;;1.15;0.95;;;30.60;32.10;;;;;;4969912;28;20057;-76
2022/09/01 13:09:43;;;;;;;1.02;0.93;;;30.50;32.20;;;;;;4984716;28;20086;-77